»·PEaware :: SWA1111 KPHX-KLAX

SWA1111 :: KPHX-KLAX

FLIGHT INFORMATION

Flight Status: Arrived
Operator:
Southwest Airlines
More flights by this operator :: More flights under this callsign
Pilot: Marcelo T. (6927)
Aircraft: BOEING 737-700
(B737)
More flights by this aircraft type
Origin: KPHX Phoenix Sky Harbor Intl
United States
Destination: KLAX Los Angeles Intl
United States
More flights between these airports :: More routes between these airports
Route: +IZZZO5 MESSI PKE TNP SEAVU2
File this flight plan on PilotEdge
Remarks: PBN / A1D1O1S2T1 NAV / RNVD1E1A1 RNP10 DAT / 1FANSP2PDC DOF / 170202 REG / N710SW EET / KZLA0021
Altitude:
(Current/Filed)
F320
Speed:
(Current/Filed)
452kts
Departed: 02-Feb-17 03:27 PM
Arrived: 02-Feb-17 04:32 PM
Distance/Time
Traveled:
320nm/1:05
Distance/Time
To Go:
Arrived

Flight Plot

Page will automatically refresh every two minutes.


Map Options




Map Legend


Flown Route
Filed Route
Departure Airport
Arrival Airport
Navaid (VOR, NDB)
Fix

Horizontal Profiles

Position Reports

Time Latitude Longitude Heading Altitude Ground
Speed
02-Feb-17 14:50 33.434115 -111.993764 284 1142ft 0kts
02-Feb-17 14:51 33.434115 -111.993764 284 1142ft 0kts
02-Feb-17 14:52 33.434115 -111.993764 284 1142ft 0kts
02-Feb-17 14:53 33.434115 -111.993764 284 1142ft 0kts
02-Feb-17 14:54 33.434115 -111.993764 284 1142ft 0kts
02-Feb-17 14:55 33.434115 -111.993764 284 1142ft 0kts
02-Feb-17 14:56 33.434115 -111.993764 284 1142ft 0kts
02-Feb-17 14:57 33.434115 -111.993764 284 1142ft 0kts
02-Feb-17 14:58 33.434115 -111.993764 284 1142ft 0kts
02-Feb-17 14:59 33.434115 -111.993764 284 1142ft 0kts
02-Feb-17 15:00 33.434115 -111.993764 284 1142ft 0kts
02-Feb-17 15:01 33.434115 -111.993764 284 1142ft 0kts
02-Feb-17 15:02 33.434115 -111.993764 284 1142ft 0kts
02-Feb-17 15:03 33.434115 -111.993764 284 1142ft 0kts
02-Feb-17 15:04 33.434115 -111.993764 284 1142ft 0kts
02-Feb-17 15:05 33.434115 -111.993764 284 1142ft 0kts
02-Feb-17 15:06 33.434115 -111.993764 284 1142ft 0kts
02-Feb-17 15:07 33.434115 -111.993764 284 1142ft 0kts
02-Feb-17 15:08 33.434115 -111.993764 284 1142ft 0kts
02-Feb-17 15:09 33.434115 -111.993764 284 1142ft 0kts
02-Feb-17 15:10 33.434115 -111.993764 284 1142ft 0kts
02-Feb-17 15:11 33.434115 -111.993764 284 1142ft 0kts
02-Feb-17 15:12 33.434055 -111.993246 259 1142ft 2kts
02-Feb-17 15:13 33.434197 -111.993012 179 1142ft 0kts
02-Feb-17 15:14 33.434197 -111.993012 179 1142ft 0kts
02-Feb-17 15:15 33.434197 -111.993012 179 1142ft 0kts
02-Feb-17 15:16 33.434197 -111.993012 179 1142ft 0kts
02-Feb-17 15:17 33.434181 -111.993011 179 1142ft 1kts
02-Feb-17 15:18 33.432834 -111.994673 270 1142ft 15kts
02-Feb-17 15:19 33.432838 -111.999118 270 1142ft 14kts
02-Feb-17 15:20 33.432840 -112.004449 269 1142ft 12kts
02-Feb-17 15:21 33.432840 -112.009418 270 1142ft 14kts
02-Feb-17 15:22 33.432117 -112.012846 269 1142ft 13kts
02-Feb-17 15:23 33.432122 -112.017369 270 1142ft 16kts
02-Feb-17 15:24 33.432119 -112.022545 270 1142ft 12kts
02-Feb-17 15:25 33.431953 -112.026914 211 1142ft 0kts
02-Feb-17 15:26 33.431030 -112.026532 90 1142ft 6kts
02-Feb-17 15:27 33.431096 -111.994849 89 1582ft 163kts
02-Feb-17 15:28 33.431527 -111.936253 90 3762ft 206kts
02-Feb-17 15:29 33.425249 -111.864977 123 6976ft 221kts
02-Feb-17 15:30 33.368679 -111.857233 210 10185ft 232kts
02-Feb-17 15:31 33.356902 -111.925319 279 13467ft 235kts
02-Feb-17 15:32 33.369557 -112.012107 274 15339ft 300kts
02-Feb-17 15:33 33.383967 -112.121738 275 17389ft 352kts
02-Feb-17 15:34 33.400162 -112.239084 276 20395ft 363kts
02-Feb-17 15:35 33.417271 -112.360459 276 23006ft 374kts
02-Feb-17 15:36 33.432245 -112.469549 275 25012ft 383kts
02-Feb-17 15:37 33.449170 -112.596790 272 27010ft 391kts
02-Feb-17 15:38 33.451929 -112.727690 268 28736ft 397kts
02-Feb-17 15:39 33.475091 -112.856941 286 30858ft 399kts
02-Feb-17 15:40 33.516128 -112.979313 286 32152ft 396kts
02-Feb-17 15:41 33.557697 -113.100372 286 32161ft 391kts
02-Feb-17 15:42 33.599425 -113.220738 287 32161ft 391kts
02-Feb-17 15:43 33.641325 -113.341300 286 32160ft 390kts
02-Feb-17 15:44 33.682898 -113.461457 286 32159ft 389kts
02-Feb-17 15:45 33.724282 -113.581520 286 32169ft 390kts
02-Feb-17 15:46 33.760260 -113.686959 286 32167ft 389kts
02-Feb-17 15:47 33.801302 -113.807522 286 32163ft 389kts
02-Feb-17 15:48 33.842881 -113.927227 286 32162ft 388kts
02-Feb-17 15:49 33.884273 -114.047054 286 32157ft 388kts
02-Feb-17 15:50 33.925526 -114.166958 286 32155ft 388kts
02-Feb-17 15:51 33.967159 -114.287192 286 32155ft 388kts
02-Feb-17 15:52 34.008588 -114.407138 286 32155ft 387kts
02-Feb-17 15:53 34.049444 -114.526997 286 32155ft 387kts
02-Feb-17 15:54 34.089640 -114.646839 282 32155ft 383kts
02-Feb-17 15:55 34.101649 -114.772357 268 32156ft 374kts
02-Feb-17 15:56 34.103836 -114.880325 267 32158ft 374kts
02-Feb-17 15:57 34.105519 -115.005716 267 32167ft 374kts
02-Feb-17 15:58 34.106990 -115.131096 267 32172ft 374kts
02-Feb-17 15:59 34.108463 -115.256860 267 32176ft 374kts
02-Feb-17 16:00 34.109640 -115.382218 267 32181ft 374kts
02-Feb-17 16:01 34.110831 -115.507587 267 32187ft 374kts
02-Feb-17 16:02 34.111546 -115.633054 267 32176ft 374kts
02-Feb-17 16:03 34.111660 -115.758916 263 32171ft 373kts
02-Feb-17 16:04 34.095497 -115.882150 258 31631ft 373kts
02-Feb-17 16:05 34.077140 -116.005624 258 30631ft 373kts
02-Feb-17 16:06 34.061416 -116.111250 258 29770ft 369kts
02-Feb-17 16:07 34.043573 -116.232649 258 28770ft 366kts
02-Feb-17 16:08 34.025344 -116.352816 257 27770ft 363kts
02-Feb-17 16:09 34.007159 -116.471749 258 26770ft 359kts
02-Feb-17 16:10 33.996727 -116.591605 262 25767ft 359kts
02-Feb-17 16:11 33.987344 -116.710604 261 24591ft 355kts
02-Feb-17 16:12 33.978048 -116.827445 261 22453ft 345kts
02-Feb-17 16:13 33.968674 -116.940614 261 20352ft 335kts
02-Feb-17 16:14 33.959376 -117.051040 261 18299ft 326kts
02-Feb-17 16:15 33.950396 -117.157451 261 17121ft 307kts
02-Feb-17 16:16 33.943390 -117.240440 261 16218ft 285kts
02-Feb-17 16:17 33.949812 -117.340362 276 14024ft 312kts
02-Feb-17 16:18 33.965632 -117.443935 276 12605ft 312kts
02-Feb-17 16:19 33.991126 -117.542220 289 11467ft 308kts
02-Feb-17 16:20 34.023832 -117.633400 284 10579ft 276kts
02-Feb-17 16:21 34.020120 -117.719488 261 9682ft 258kts
02-Feb-17 16:22 34.011565 -117.806209 264 8497ft 261kts
02-Feb-17 16:23 34.003113 -117.892760 264 7292ft 259kts
02-Feb-17 16:24 33.994762 -117.978281 264 6154ft 251kts
02-Feb-17 16:25 33.986732 -118.058900 263 5094ft 235kts
02-Feb-17 16:26 33.982005 -118.106152 262 4464ft 227kts
02-Feb-17 16:27 33.973614 -118.191718 262 3378ft 206kts
02-Feb-17 16:28 33.968053 -118.246266 261 2635ft 191kts
02-Feb-17 16:29 33.960854 -118.316550 261 1517ft 166kts
02-Feb-17 16:30 33.955761 -118.366137 260 724ft 135kts
02-Feb-17 16:31 33.951410 -118.408717 262 135ft 114kts
02-Feb-17 16:32 33.949554 -118.419058 233 134ft 7kts
02-Feb-17 16:33 33.949243 -118.419558 232 134ft 0kts
02-Feb-17 16:34 33.949092 -118.419792 232 134ft 8kts
02-Feb-17 16:35 33.946913 -118.421551 82 134ft 15kts
02-Feb-17 16:36 33.947481 -118.416025 83 134ft 17kts
02-Feb-17 16:37 33.948239 -118.410031 82 134ft 19kts
02-Feb-17 16:38 33.948743 -118.404980 83 134ft 13kts
02-Feb-17 16:39 33.948730 -118.400840 128 134ft 11kts
02-Feb-17 16:40 33.946509 -118.400230 174 134ft 4kts
02-Feb-17 16:41 33.946242 -118.400185 171 134ft 0kts

Navigation Log

Ident Type
Flight plan parsing failed, navigation log unavailable